Time;durP1;ratioP1;P1;durP2;ratioP2;P2;SDS_P1;SDS_P2;PMS_P1;PMS_P2;Temp;Humidity;BMP_temperature;BMP_pressure;BME280_temperature;BME280_humidity;BME280_pressure;Samples;Min_cycle;Max_cycle;Signal;HPM_P1;HPM_P2
2023/10/13 00:02:22;;;;;;;42.10;29.02;;;20.30;96.80;;;;;;5016699;28;20026;-73
2023/10/13 00:04:51;;;;;;;51.75;31.50;;;20.30;96.80;;;;;;5016176;28;20022;-73
2023/10/13 00:07:17;;;;;;;39.90;30.27;;;20.30;96.80;;;;;;5016436;28;20030;-73
2023/10/13 00:09:49;;;;;;;44.88;30.90;;;20.30;96.80;;;;;;5016051;28;20105;-73
2023/10/13 00:12:14;;;;;;;40.00;28.85;;;20.30;96.90;;;;;;5016022;28;20406;-73
2023/10/13 00:14:41;;;;;;;45.22;29.15;;;20.30;96.90;;;;;;5016080;28;20100;-73
2023/10/13 00:17:07;;;;;;;42.10;30.88;;;20.20;96.80;;;;;;5016017;28;20112;-73
2023/10/13 00:19:44;;;;;;;49.22;30.65;;;20.20;96.90;;;;;;5016389;28;20034;-73
2023/10/13 00:22:11;;;;;;;52.65;31.20;;;20.20;96.90;;;;;;5015057;28;20722;-75
2023/10/13 00:24:58;;;;;;;44.67;29.98;;;20.20;96.90;;;;;;5015821;28;20433;-73
2023/10/13 00:27:33;;;;;;;39.75;28.73;;;20.20;96.90;;;;;;5015841;28;20022;-73
2023/10/13 00:32:46;;;;;;;38.42;27.88;;;20.10;96.80;;;;;;5015077;28;20072;-73
2023/10/13 00:35:14;;;;;;;46.67;29.70;;;20.10;96.90;;;;;;5014140;28;20018;-73
2023/10/13 00:37:46;;;;;;;43.00;27.85;;;20.10;96.90;;;;;;5015577;28;20433;-73
2023/10/13 00:43:28;;;;;;;48.88;27.48;;;20.10;96.90;;;;;;5035494;28;20036;-73
2023/10/13 00:45:44;;;;;;;45.40;27.45;;;20.10;96.90;;;;;;5034541;28;20108;-79
2023/10/13 00:48:14;;;;;;;41.45;28.73;;;20.10;96.90;;;;;;5035221;28;20054;-81
2023/10/13 00:50:42;;;;;;;39.35;27.92;;;20.10;96.90;;;;;;5035463;28;20152;-79
2023/10/13 00:53:09;;;;;;;41.90;28.85;;;20.10;96.90;;;;;;5035217;28;20120;-80
2023/10/13 00:55:41;;;;;;;44.95;28.92;;;20.10;96.90;;;;;;5034858;28;20021;-80
2023/10/13 00:58:11;;;;;;;49.92;27.42;;;20.10;96.90;;;;;;5033512;28;20064;-81
2023/10/13 01:00:47;;;;;;;41.83;27.67;;;20.10;96.90;;;;;;5030979;28;20079;-79
2023/10/13 01:03:13;;;;;;;43.80;27.33;;;20.10;97.00;;;;;;5032236;28;20059;-78
2023/10/13 01:05:41;;;;;;;45.92;27.60;;;20.10;97.00;;;;;;5034803;28;20022;-72
2023/10/13 01:08:11;;;;;;;41.95;28.02;;;20.10;97.00;;;;;;5035738;28;20025;-73
2023/10/13 01:10:37;;;;;;;47.97;27.55;;;20.10;96.90;;;;;;5035392;28;20096;-73
2023/10/13 01:13:04;;;;;;;40.80;26.88;;;20.10;96.90;;;;;;5035287;28;20033;-73
2023/10/13 01:15:33;;;;;;;37.88;26.70;;;20.10;96.90;;;;;;5035666;28;20017;-72
2023/10/13 01:18:16;;;;;;;36.25;25.92;;;20.10;97.00;;;;;;5034244;28;20449;-73
2023/10/13 01:20:45;;;;;;;43.00;27.45;;;20.10;97.00;;;;;;5034627;28;20372;-72
2023/10/13 01:23:28;;;;;;;44.28;27.98;;;20.20;97.00;;;;;;5035274;28;20441;-71
2023/10/13 01:26:04;;;;;;;;;;;20.20;97.00;;;;;;5033797;28;20029;-72
2023/10/13 01:28:44;;;;;;;39.78;27.02;;;20.10;97.00;;;;;;5032979;28;19912;-72
2023/10/13 01:31:30;;;;;;;41.25;26.83;;;20.20;97.00;;;;;;5034487;28;20033;-72
2023/10/13 01:34:03;;;;;;;36.80;25.90;;;20.10;97.00;;;;;;5034706;28;20052;-72
2023/10/13 01:36:35;;;;;;;47.40;27.95;;;20.20;97.10;;;;;;5034596;28;20060;-73
2023/10/13 01:39:01;;;;;;;44.33;28.48;;;20.10;97.00;;;;;;5034450;28;20029;-73
2023/10/13 01:41:31;;;;;;;43.25;27.38;;;20.10;97.00;;;;;;5034107;28;20021;-73
2023/10/13 01:43:57;;;;;;;43.78;28.38;;;20.20;97.10;;;;;;5034293;28;20026;-72
2023/10/13 01:46:23;;;;;;;45.22;28.55;;;20.20;97.30;;;;;;5034293;28;20021;-73
2023/10/13 01:48:49;;;;;;;43.05;26.30;;;20.20;97.00;;;;;;5034315;28;20128;-73
2023/10/13 01:51:15;;;;;;;44.97;27.65;;;20.20;97.00;;;;;;5034452;28;20017;-73
2023/10/13 01:53:41;;;;;;;41.22;26.38;;;20.20;97.00;;;;;;5032749;28;20033;-73
2023/10/13 01:56:11;;;;;;;38.53;26.17;;;20.20;97.00;;;;;;5031887;28;20381;-73
2023/10/13 01:58:43;;;;;;;45.72;27.15;;;20.20;97.00;;;;;;5033969;28;20108;-73
2023/10/13 02:01:10;;;;;;;;;;;20.20;97.00;;;;;;5032742;28;20397;-73
2023/10/13 02:03:42;;;;;;;44.83;27.88;;;20.20;97.00;;;;;;5033032;28;20268;-74
2023/10/13 02:06:10;;;;;;;44.40;29.50;;;20.20;97.00;;;;;;5033924;28;20389;-73
2023/10/13 02:08:44;;;;;;;43.08;30.48;;;20.20;97.00;;;;;;5033680;28;20498;-73
2023/10/13 02:11:09;;;;;;;48.20;30.45;;;20.20;97.00;;;;;;5033425;28;20029;-73
2023/10/13 02:13:48;;;;;;;42.58;29.08;;;20.20;97.00;;;;;;5033414;28;20083;-73
2023/10/13 02:16:18;;;;;;;44.35;31.08;;;20.20;97.00;;;;;;5033669;28;20497;-73
2023/10/13 02:18:44;;;;;;;47.80;29.92;;;20.20;96.90;;;;;;5033644;28;20028;-73
2023/10/13 02:21:13;;;;;;;45.97;30.05;;;20.20;97.00;;;;;;5033687;28;20021;-73
2023/10/13 02:23:45;;;;;;;45.22;30.45;;;20.20;97.00;;;;;;5033605;28;20040;-73
2023/10/13 02:26:37;;;;;;;48.63;30.27;;;20.20;97.00;;;;;;5033617;28;20021;-74
2023/10/13 02:29:07;;;;;;;44.13;29.50;;;20.20;97.00;;;;;;5033487;28;20052;-74
2023/10/13 02:31:36;;;;;;;46.60;29.70;;;20.10;97.00;;;;;;5033167;28;20056;-73
2023/10/13 02:34:07;;;;;;;46.17;30.08;;;20.10;97.00;;;;;;5033053;28;20470;-73
2023/10/13 02:36:46;;;;;;;47.10;28.90;;;20.10;97.00;;;;;;5033409;28;20025;-73
2023/10/13 02:39:13;;;;;;;45.05;30.83;;;20.10;97.00;;;;;;5033400;28;20140;-73
2023/10/13 02:41:41;;;;;;;48.40;30.83;;;20.10;97.00;;;;;;5032094;28;20104;-73
2023/10/13 02:44:10;;;;;;;43.22;29.13;;;20.10;97.00;;;;;;5032926;28;20028;-73
2023/10/13 02:46:39;;;;;;;41.80;29.17;;;20.10;97.00;;;;;;5033049;28;20031;-72
2023/10/13 02:49:11;;;;;;;43.25;30.23;;;20.10;97.10;;;;;;5032311;28;20375;-73
2023/10/13 02:51:37;;;;;;;43.50;29.92;;;20.10;97.10;;;;;;5033922;28;20035;-72
2023/10/13 02:54:10;;;;;;;46.50;29.05;;;20.10;97.10;;;;;;5033985;28;20021;-72
2023/10/13 02:56:49;;;;;;;51.55;31.02;;;20.10;97.20;;;;;;5033410;28;20017;-72
2023/10/13 03:03:22;;;;;;;40.80;30.48;;;20.00;97.20;;;;;;5007192;28;20526;-73
2023/10/13 03:06:40;;;;;;;41.20;30.13;;;20.10;97.30;;;;;;5011253;28;20196;-72
2023/10/13 03:09:28;;;;;;;44.72;28.70;;;20.10;97.20;;;;;;5009964;28;20045;-73
2023/10/13 03:12:00;;;;;;;44.55;28.83;;;20.10;97.20;;;;;;5013413;28;20030;-71
2023/10/13 03:14:37;;;;;;;42.70;26.15;;;20.10;97.30;;;;;;5013437;28;20025;-72
2023/10/13 03:17:16;;;;;;;47.75;27.05;;;20.00;97.30;;;;;;5013617;28;20106;-72
2023/10/13 03:19:49;;;;;;;41.17;27.90;;;20.00;97.30;;;;;;5012995;28;20751;-72
2023/10/13 03:22:31;;;;;;;36.75;28.17;;;20.00;97.30;;;;;;5010805;28;20030;-72
2023/10/13 03:25:04;;;;;;;45.27;27.27;;;20.00;97.30;;;;;;5012972;28;20026;-71
2023/10/13 03:28:33;;;;;;;42.83;29.27;;;20.00;97.30;;;;;;5013229;28;20671;-73
2023/10/13 03:30:35;;;;;;;55.15;28.90;;;20.00;97.30;;;;;;5003969;28;20040;-73
2023/10/13 03:33:07;;;;;;;40.15;29.23;;;20.00;97.30;;;;;;5011469;28;20468;-75
2023/10/13 03:35:41;;;;;;;44.05;28.33;;;20.00;97.30;;;;;;5013125;28;20029;-73
2023/10/13 03:38:16;;;;;;;45.33;30.10;;;19.90;97.30;;;;;;5012907;28;20037;-73
2023/10/13 03:40:48;;;;;;;42.15;28.52;;;19.90;97.30;;;;;;5011929;28;20398;-73
2023/10/13 03:43:16;;;;;;;42.42;29.95;;;19.90;97.20;;;;;;5012607;28;20027;-73
2023/10/13 03:45:47;;;;;;;45.22;31.80;;;19.90;97.10;;;;;;5012527;28;20113;-73
2023/10/13 03:51:03;;;;;;;49.97;33.13;;;19.90;97.00;;;;;;5012766;28;20521;-73
2023/10/13 03:53:33;;;;;;;48.13;32.50;;;19.90;97.10;;;;;;5012653;28;20038;-73
2023/10/13 03:56:08;;;;;;;50.60;33.60;;;19.80;97.10;;;;;;5012989;28;20022;-72
2023/10/13 03:58:38;;;;;;;50.17;32.83;;;19.80;97.20;;;;;;5012875;28;20026;-73
2023/10/13 04:01:09;;;;;;;43.13;31.38;;;19.80;97.20;;;;;;5012337;28;20018;-74
2023/10/13 04:03:38;;;;;;;41.58;30.05;;;19.80;97.30;;;;;;5013025;28;20026;-78
2023/10/13 04:06:08;;;;;;;44.55;29.90;;;19.80;97.30;;;;;;5012533;28;20030;-81
2023/10/13 04:16:39;;;;;;;42.38;30.45;;;19.80;97.40;;;;;;5012472;28;20112;-81
2023/10/13 04:19:09;;;;;;;50.28;30.15;;;19.80;97.50;;;;;;5013168;28;20030;-80
2023/10/13 04:21:57;;;;;;;46.70;30.13;;;19.90;97.50;;;;;;5016226;28;20022;-79
2023/10/13 04:24:39;;;;;;;50.03;32.65;;;19.90;97.40;;;;;;5015466;28;20417;-73
2023/10/13 04:32:28;;;;;;;50.15;31.63;;;19.90;97.40;;;;;;5007974;28;20048;-73
2023/10/13 04:35:00;;;;;;;47.30;30.65;;;19.90;97.40;;;;;;5016400;28;20022;-73
2023/10/13 04:37:29;;;;;;;50.17;31.10;;;19.80;97.40;;;;;;5016244;28;20378;-73
2023/10/13 04:40:18;;;;;;;46.20;30.48;;;19.90;97.40;;;;;;5016218;28;20108;-73
2023/10/13 04:42:49;;;;;;;41.58;30.63;;;19.80;97.40;;;;;;5016058;28;20037;-73
2023/10/13 04:50:51;;;;;;;40.22;29.33;;;19.80;97.40;;;;;;5015835;28;19905;-72
2023/10/13 05:01:39;;;;;;;43.35;31.05;;;19.80;97.50;;;;;;5013903;28;20461;-73
2023/10/13 05:44:33;;;;;;;46.85;26.65;;;19.90;97.50;;;;;;4995917;28;20434;-73
2023/10/13 06:29:37;;;;;;;50.70;29.55;;;19.80;97.50;;;;;;4992466;28;20126;-73
2023/10/13 06:32:12;;;;;;;53.58;29.23;;;19.80;97.60;;;;;;4992627;28;20038;-73
2023/10/13 06:34:42;;;;;;;51.58;29.27;;;19.80;97.60;;;;;;4992139;28;20037;-73
2023/10/13 06:37:25;;;;;;;55.42;28.58;;;19.90;97.60;;;;;;5013691;28;20409;-72
2023/10/13 06:39:56;;;;;;;58.42;30.80;;;19.80;97.60;;;;;;5011777;28;20037;-72
2023/10/13 06:42:28;;;;;;;47.10;27.50;;;19.90;97.60;;;;;;5011833;28;20021;-72
2023/10/13 06:45:08;;;;;;;57.97;29.00;;;19.90;97.50;;;;;;5013536;28;20359;-73
2023/10/13 06:47:45;;;;;;;57.67;28.02;;;19.90;97.50;;;;;;5013262;28;20044;-73
2023/10/13 06:50:15;;;;;;;52.08;27.25;;;19.90;97.50;;;;;;5013371;28;20382;-73
2023/10/13 06:52:47;;;;;;;51.55;27.40;;;20.00;97.60;;;;;;5013425;28;20121;-73
2023/10/13 06:55:17;;;;;;;41.90;26.25;;;19.90;97.60;;;;;;5012167;28;20486;-73
2023/10/13 06:57:46;;;;;;;40.88;25.20;;;20.00;97.60;;;;;;5013269;28;20045;-73
2023/10/13 07:03:21;;;;;;;33.78;20.20;;;20.00;97.40;;;;;;4990052;28;20128;-73
2023/10/13 07:05:47;;;;;;;31.80;20.15;;;20.10;97.30;;;;;;5013281;28;20498;-74
2023/10/13 07:08:19;;;;;;;45.15;20.05;;;20.10;97.30;;;;;;5013471;28;20092;-73
2023/10/13 07:11:13;;;;;;;33.83;20.45;;;20.10;97.20;;;;;;5012820;28;20108;-73
2023/10/13 07:13:39;;;;;;;30.90;20.25;;;20.10;97.10;;;;;;5012750;28;20069;-73
2023/10/13 07:16:12;;;;;;;41.97;20.92;;;20.10;97.00;;;;;;5011699;28;20056;-74
2023/10/13 07:18:49;;;;;;;34.50;21.50;;;20.20;97.00;;;;;;5013164;28;20547;-73
2023/10/13 07:21:15;;;;;;;43.85;22.92;;;20.20;97.00;;;;;;5013085;28;20382;-80
2023/10/13 07:23:49;;;;;;;42.97;23.15;;;20.20;96.90;;;;;;5013067;28;20022;-81
2023/10/13 07:26:15;;;;;;;43.13;22.90;;;20.30;96.90;;;;;;5012686;28;20030;-80
2023/10/13 07:28:44;;;;;;;42.97;23.52;;;20.20;96.80;;;;;;5013210;28;20061;-81
2023/10/13 07:31:16;;;;;;;51.17;26.85;;;20.30;96.80;;;;;;5012925;28;20642;-81
2023/10/13 07:33:42;;;;;;;48.72;29.08;;;20.30;96.70;;;;;;5012797;28;20074;-81
2023/10/13 07:36:33;;;;;;;42.22;25.80;;;20.30;96.80;;;;;;5011436;28;20445;-80
2023/10/13 07:41:43;;;;;;;50.17;24.70;;;20.40;96.70;;;;;;5013055;28;20103;-73
2023/10/13 07:44:12;;;;;;;49.15;25.63;;;20.40;96.80;;;;;;5013072;28;20021;-73
2023/10/13 07:46:38;;;;;;;49.92;26.92;;;20.40;96.80;;;;;;5013495;28;20021;-73
2023/10/13 07:49:11;;;;;;;44.13;25.77;;;20.50;96.80;;;;;;5012113;28;20513;-74
2023/10/13 07:51:44;;;;;;;39.00;26.58;;;20.50;96.80;;;;;;5013717;28;20026;-73
2023/10/13 07:54:26;;;;;;;50.38;26.58;;;20.50;96.70;;;;;;5014329;28;20440;-73
2023/10/13 07:56:55;;;;;;;;;;;20.60;96.70;;;;;;5017611;28;20068;-73
2023/10/13 07:59:25;;;;;;;46.72;28.02;;;20.60;96.60;;;;;;5017113;28;19916;-73
2023/10/13 08:02:12;;;;;;;52.67;27.55;;;20.60;96.60;;;;;;5016871;28;20034;-73
2023/10/13 08:08:14;;;;;;;51.17;28.88;;;20.70;96.70;;;;;;5016175;28;20061;-74
2023/10/13 08:18:34;;;;;;;52.05;30.98;;;20.80;96.70;;;;;;4917217;29;20151;-73
2023/10/13 08:21:16;;;;;;;44.75;28.83;;;20.90;96.90;;;;;;4926834;28;20394;-73
2023/10/13 08:26:29;;;;;;;55.30;30.60;;;21.00;96.60;;;;;;5015652;28;20378;-74
2023/10/13 08:29:31;;;;;;;49.40;28.35;;;21.00;96.70;;;;;;5015096;28;20378;-73
2023/10/13 08:34:38;;;;;;;54.20;32.20;;;21.10;96.50;;;;;;5015839;28;20560;-73
2023/10/13 08:37:47;;;;;;;56.70;31.50;;;21.10;96.60;;;;;;5014506;28;20426;-74
2023/10/13 09:09:27;;;;;;;69.78;43.28;;;21.70;96.50;;;;;;5010372;28;20480;-74
2023/10/13 09:12:08;;;;;;;67.15;40.20;;;21.70;96.50;;;;;;5013976;28;20026;-74
2023/10/13 09:14:43;;;;;;;72.75;43.08;;;21.70;96.50;;;;;;5013155;28;20485;-73
2023/10/13 09:19:49;;;;;;;80.97;45.85;;;21.80;96.40;;;;;;5013931;28;20029;-74
2023/10/13 09:22:26;;;;;;;85.28;45.00;;;21.80;96.30;;;;;;5014124;28;20026;-74
2023/10/13 09:25:00;;;;;;;68.50;42.35;;;21.90;96.30;;;;;;5012615;28;20092;-74
2023/10/13 09:27:32;;;;;;;72.57;42.70;;;21.90;96.20;;;;;;5014754;28;20025;-74
2023/10/13 09:30:21;;;;;;;71.63;42.17;;;21.90;96.30;;;;;;5013440;28;20080;-74
2023/10/13 09:33:01;;;;;;;82.32;42.60;;;21.90;96.20;;;;;;5013849;28;20033;-74
2023/10/13 09:35:33;;;;;;;71.22;42.55;;;21.90;96.20;;;;;;5014089;28;20033;-73
2023/10/13 09:38:03;;;;;;;68.13;38.03;;;21.90;96.20;;;;;;5014219;28;20028;-73
2023/10/13 09:43:07;;;;;;;73.13;42.10;;;21.90;96.30;;;;;;5014528;28;20041;-73
2023/10/13 09:45:48;;;;;;;62.45;39.67;;;21.90;96.20;;;;;;5014960;28;20029;-73
2023/10/13 09:49:14;;;;;;;65.45;41.95;;;22.00;96.10;;;;;;5014531;28;20053;-73
2023/10/13 09:51:47;;;;;;;70.43;41.47;;;21.90;96.10;;;;;;5013310;28;20014;-73
2023/10/13 09:55:18;;;;;;;67.03;41.05;;;22.00;96.00;;;;;;5013405;28;20409;-73
2023/10/13 09:57:48;;;;;;;73.90;44.42;;;21.90;96.00;;;;;;4945573;28;20026;-73
2023/10/13 10:00:44;;;;;;;59.35;39.53;;;22.00;96.10;;;;;;4973082;28;20086;-73
2023/10/13 10:06:03;;;;;;;74.00;44.22;;;22.00;96.10;;;;;;5014037;28;20041;-74
2023/10/13 10:08:33;;;;;;;87.25;46.70;;;21.90;96.00;;;;;;5013809;28;20030;-75
2023/10/13 10:11:25;;;;;;;78.28;44.67;;;22.00;96.00;;;;;;5013026;28;20433;-75
2023/10/13 10:14:11;;;;;;;78.82;46.58;;;22.00;96.10;;;;;;5014118;28;20398;-74
2023/10/13 10:16:59;;;;;;;84.07;48.47;;;22.00;96.10;;;;;;5013476;28;20394;-75
2023/10/13 10:19:27;;;;;;;73.13;45.55;;;22.00;96.00;;;;;;5014050;28;20025;-75
2023/10/13 10:22:16;;;;;;;79.78;44.90;;;22.00;95.90;;;;;;5013827;28;20351;-75
2023/10/13 10:24:43;;;;;;;73.18;44.03;;;22.00;95.90;;;;;;5013165;28;20467;-75
2023/10/13 10:27:14;;;;;;;76.28;48.22;;;22.00;95.80;;;;;;5013700;28;20030;-75
2023/10/13 10:30:03;;;;;;;84.22;46.22;;;22.00;95.80;;;;;;5013703;28;20018;-75
2023/10/13 10:33:07;;;;;;;82.82;47.65;;;22.00;95.80;;;;;;5012554;28;20048;-76
2023/10/13 10:35:33;;;;;;;78.15;45.25;;;22.10;96.00;;;;;;5012111;28;20410;-75
2023/10/13 10:38:32;;;;;;;82.30;46.22;;;22.10;95.90;;;;;;5013853;28;20026;-75
2023/10/13 10:41:03;;;;;;;77.95;45.10;;;22.10;95.90;;;;;;5013149;28;20422;-85
2023/10/13 10:43:41;;;;;;;81.40;47.25;;;22.10;95.90;;;;;;5013009;28;20025;-81
2023/10/13 10:46:11;;;;;;;83.75;47.15;;;22.10;95.90;;;;;;5013197;28;20028;-79
2023/10/13 10:48:43;;;;;;;67.40;42.90;;;22.10;95.80;;;;;;5012503;28;20041;-81
2023/10/13 10:51:21;;;;;;;;;;;22.10;95.80;;;;;;5013429;28;20018;-80
2023/10/13 10:53:51;;;;;;;78.68;43.53;;;22.20;95.80;;;;;;5012953;28;20358;-79
2023/10/13 10:56:36;;;;;;;73.88;44.67;;;22.20;95.70;;;;;;5012120;28;20152;-81
2023/10/13 10:59:04;;;;;;;74.68;43.88;;;22.30;95.70;;;;;;5013879;28;20018;-74
2023/10/13 11:01:38;;;;;;;66.63;41.92;;;22.30;95.70;;;;;;5014022;28;20026;-74
2023/10/13 11:04:08;;;;;;;76.28;43.90;;;22.30;95.80;;;;;;5013821;28;20022;-75
2023/10/13 11:06:45;;;;;;;70.43;41.78;;;22.30;95.80;;;;;;5013596;28;20034;-74
2023/10/13 11:10:19;;;;;;;71.13;43.20;;;22.30;95.70;;;;;;5012114;28;20065;-74
2023/10/13 11:12:24;;;;;;;72.47;41.25;;;22.30;95.70;;;;;;5000455;28;20500;-74
2023/10/13 11:17:43;;;;;;;61.25;38.97;;;22.20;95.60;;;;;;5011198;28;20335;-75
2023/10/13 11:20:25;;;;;;;67.22;39.72;;;22.20;95.60;;;;;;5013235;28;20108;-75
2023/10/13 11:22:52;;;;;;;62.40;37.25;;;22.20;95.70;;;;;;5013372;28;20386;-75
2023/10/13 11:25:56;;;;;;;64.50;38.63;;;22.20;95.80;;;;;;5013332;28;20026;-74
2023/10/13 11:28:28;;;;;;;68.50;38.10;;;22.20;95.70;;;;;;5014605;28;20034;-74
2023/10/13 11:31:19;;;;;;;67.07;37.08;;;22.20;95.70;;;;;;5017213;28;20098;-74
2023/10/13 11:33:50;;;;;;;67.00;38.97;;;22.20;95.80;;;;;;5016851;28;20033;-75
2023/10/13 11:36:25;;;;;;;62.67;37.08;;;22.30;95.50;;;;;;5017115;28;20022;-73
2023/10/13 11:38:57;;;;;;;57.70;38.47;;;22.30;95.40;;;;;;5014574;28;20026;-73
2023/10/13 11:41:34;;;;;;;62.85;38.47;;;22.30;95.00;;;;;;5014238;28;20018;-74
2023/10/13 11:51:45;;;;;;;70.63;41.63;;;22.40;95.60;;;;;;5016303;28;20490;-75
2023/10/13 11:54:15;;;;;;;68.93;43.15;;;22.50;95.60;;;;;;5015955;28;20386;-74
2023/10/13 11:56:41;;;;;;;75.85;42.50;;;22.50;95.40;;;;;;5015413;28;20398;-74
2023/10/13 11:59:15;;;;;;;71.32;42.28;;;22.50;95.10;;;;;;5013250;28;20536;-75
2023/10/13 12:04:40;;;;;;;70.90;43.10;;;22.50;95.20;;;;;;5013440;28;20041;-76
2023/10/13 12:13:12;;;;;;;65.38;39.28;;;22.50;95.50;;;;;;4974784;28;20035;-76
2023/10/13 12:15:48;;;;;;;61.97;39.20;;;22.50;95.50;;;;;;4988522;28;20479;-74
2023/10/13 12:18:14;;;;;;;68.93;40.03;;;22.50;95.50;;;;;;4995228;28;20040;-73
2023/10/13 12:20:45;;;;;;;69.55;39.60;;;22.50;95.50;;;;;;5011749;28;20037;-73
2023/10/13 12:23:16;;;;;;;65.57;38.58;;;22.50;95.60;;;;;;4996278;28;20041;-74
2023/10/13 12:25:57;;;;;;;70.40;39.28;;;22.50;95.60;;;;;;4996048;28;20014;-73
2023/10/13 12:28:26;;;;;;;74.93;40.65;;;22.50;95.70;;;;;;4994604;28;20026;-74
2023/10/13 12:30:58;;;;;;;68.47;38.63;;;22.50;95.30;;;;;;4995922;28;20514;-73
2023/10/13 12:33:25;;;;;;;61.85;37.95;;;22.50;95.40;;;;;;4995710;28;20038;-74
2023/10/13 12:52:19;;;;;;;59.80;35.25;;;22.60;95.70;;;;;;4996531;28;20038;-73
2023/10/13 12:57:22;;;;;;;61.40;37.00;;;22.60;95.40;;;;;;4995880;28;20390;-73
2023/10/13 12:59:53;;;;;;;59.47;36.08;;;22.60;95.20;;;;;;4995627;28;20061;-73
2023/10/13 13:02:37;;;;;;;;;;;;;;;;;;;;;
2023/10/13 13:08:22;;;;;;;65.40;36.60;;;22.60;94.90;;;;;;4885073;29;20041;-72
2023/10/13 13:10:48;;;;;;;51.20;35.05;;;22.60;94.90;;;;;;4984325;28;20402;-73
2023/10/13 13:13:24;;;;;;;55.80;36.25;;;22.60;94.90;;;;;;4994965;28;20034;-74
2023/10/13 13:15:53;;;;;;;61.30;36.03;;;22.60;94.80;;;;;;4994621;28;20034;-73
2023/10/13 13:18:19;;;;;;;51.80;34.63;;;22.60;94.80;;;;;;4993898;28;20109;-73
2023/10/13 13:20:54;;;;;;;54.85;34.08;;;22.60;94.70;;;;;;4995390;28;20415;-73
2023/10/13 13:23:22;;;;;;;59.08;34.50;;;22.70;94.80;;;;;;4993978;28;20096;-73
2023/10/13 13:25:47;;;;;;;56.25;36.17;;;22.70;94.80;;;;;;4994138;28;20457;-75
2023/10/13 13:28:15;;;;;;;60.05;35.08;;;22.70;94.70;;;;;;4994145;28;20110;-73
2023/10/13 13:30:44;;;;;;;64.60;37.70;;;22.70;94.60;;;;;;4995357;28;20027;-73
2023/10/13 13:33:10;;;;;;;60.78;38.33;;;22.70;94.50;;;;;;4995303;28;20427;-74
2023/10/13 13:35:42;;;;;;;67.22;36.80;;;22.70;94.50;;;;;;4995277;28;20434;-73
2023/10/13 13:38:21;;;;;;;66.20;38.45;;;22.70;94.60;;;;;;4995308;28;20023;-73
2023/10/13 13:40:49;;;;;;;62.88;37.58;;;22.70;94.50;;;;;;4995528;28;20045;-73
2023/10/13 13:43:31;;;;;;;58.05;35.72;;;22.70;94.40;;;;;;4995029;28;20031;-73
2023/10/13 13:46:03;;;;;;;;;;;22.70;94.40;;;;;;4995498;28;20471;-73
2023/10/13 13:48:29;;;;;;;56.58;31.67;;;22.60;94.50;;;;;;4995062;28;19917;-74
2023/10/13 13:51:03;;;;;;;49.58;34.70;;;22.70;94.50;;;;;;4994906;28;20401;-74
2023/10/13 13:53:32;;;;;;;60.53;33.05;;;22.70;94.50;;;;;;4994285;28;20034;-73
2023/10/13 13:56:06;;;;;;;61.33;35.65;;;22.70;94.40;;;;;;4995071;28;20034;-80
2023/10/13 13:58:32;;;;;;;60.28;34.50;;;22.70;94.30;;;;;;4995306;28;20022;-80
2023/10/13 14:01:12;;;;;;;54.05;32.60;;;22.70;94.30;;;;;;4995144;28;20030;-81
2023/10/13 14:03:45;;;;;;;51.63;32.08;;;22.70;94.40;;;;;;4995149;28;20027;-80
2023/10/13 14:06:20;;;;;;;56.10;33.13;;;22.70;94.50;;;;;;4994737;28;20019;-81
2023/10/13 14:08:54;;;;;;;59.53;32.63;;;22.70;94.50;;;;;;4994590;28;20034;-81
2023/10/13 14:14:11;;;;;;;52.30;33.92;;;22.70;94.50;;;;;;4994524;28;20035;-81
2023/10/13 14:16:45;;;;;;;59.95;32.42;;;22.80;94.50;;;;;;4994806;28;20431;-73
2023/10/13 14:19:11;;;;;;;57.30;34.60;;;22.80;94.50;;;;;;4994320;28;20499;-73
2023/10/13 14:21:38;;;;;;;55.88;32.08;;;22.80;94.60;;;;;;4994947;28;20141;-73
2023/10/13 14:24:13;;;;;;;54.83;33.80;;;22.80;94.80;;;;;;4994815;28;20026;-73
2023/10/13 14:26:39;;;;;;;50.45;33.08;;;22.80;94.80;;;;;;4994969;28;20422;-73
2023/10/13 14:29:08;;;;;;;53.92;34.90;;;22.80;94.70;;;;;;4994369;28;20386;-73
2023/10/13 14:31:52;;;;;;;54.95;35.17;;;22.80;94.90;;;;;;4994333;28;20031;-73
2023/10/13 14:35:00;;;;;;;53.60;33.65;;;22.80;95.00;;;;;;4994465;28;20041;-73
2023/10/13 14:41:05;;;;;;;53.42;34.97;;;22.80;94.90;;;;;;4975446;28;20053;-73
2023/10/13 14:43:31;;;;;;;64.03;33.30;;;22.80;94.50;;;;;;4995959;28;20372;-73
2023/10/13 14:46:00;;;;;;;55.00;34.00;;;22.80;94.50;;;;;;5013040;28;20037;-73
2023/10/13 14:48:26;;;;;;;51.67;34.45;;;22.80;94.70;;;;;;5012293;28;20406;-74
2023/10/13 14:50:52;;;;;;;59.67;36.88;;;22.90;94.90;;;;;;5013475;28;20026;-73
2023/10/13 14:53:21;;;;;;;58.13;34.45;;;22.80;95.00;;;;;;5013219;28;20030;-74
2023/10/13 14:55:48;;;;;;;55.10;32.47;;;22.90;95.10;;;;;;5011841;28;20462;-74
2023/10/13 14:58:16;;;;;;;52.35;35.17;;;22.90;95.20;;;;;;5013290;28;20044;-73
2023/10/13 15:00:45;;;;;;;54.10;36.72;;;22.90;95.30;;;;;;5013098;28;20446;-73
2023/10/13 15:03:11;;;;;;;53.65;35.58;;;22.80;95.30;;;;;;5011525;28;20467;-73
2023/10/13 15:05:43;;;;;;;57.25;35.72;;;22.80;95.40;;;;;;5013183;28;20049;-73
2023/10/13 15:08:09;;;;;;;61.40;35.15;;;22.80;95.80;;;;;;5013009;28;20419;-73
2023/10/13 15:10:36;;;;;;;54.63;35.38;;;22.80;95.60;;;;;;5012085;28;20410;-73
2023/10/13 15:13:05;;;;;;;52.83;34.78;;;22.80;95.60;;;;;;5013317;28;20418;-74
2023/10/13 15:15:32;;;;;;;58.30;33.38;;;22.80;95.70;;;;;;5013322;28;20073;-74
2023/10/13 15:17:58;;;;;;;54.85;34.00;;;22.80;95.70;;;;;;5013405;28;20022;-74
2023/10/13 15:20:24;;;;;;;61.17;36.55;;;22.80;95.70;;;;;;5013103;28;20026;-74
2023/10/13 15:22:53;;;;;;;49.25;33.50;;;22.80;95.80;;;;;;5012813;28;20028;-74
2023/10/13 15:26:06;;;;;;;52.17;31.73;;;22.70;95.70;;;;;;5012787;28;20121;-73
2023/10/13 15:28:09;;;;;;;48.08;32.20;;;22.70;95.70;;;;;;5009371;28;20030;-73
2023/10/13 15:30:45;;;;;;;50.08;32.85;;;22.70;95.70;;;;;;5012266;28;20102;-72
2023/10/13 15:33:13;;;;;;;61.03;33.55;;;22.70;95.70;;;;;;5012105;28;20520;-73
2023/10/13 15:35:42;;;;;;;54.55;34.70;;;22.70;95.80;;;;;;5013083;28;20378;-75
2023/10/13 15:38:10;;;;;;;60.08;33.90;;;22.70;95.90;;;;;;5011314;28;20117;-73
2023/10/13 15:40:42;;;;;;;46.58;33.85;;;22.70;95.90;;;;;;5013303;28;20113;-73
2023/10/13 15:43:08;;;;;;;58.30;33.33;;;22.70;95.90;;;;;;5012310;28;20088;-73
2023/10/13 15:45:39;;;;;;;56.25;36.00;;;22.60;95.90;;;;;;5012215;28;20022;-73
2023/10/13 15:48:05;;;;;;;54.53;31.95;;;22.60;95.90;;;;;;5012534;28;20536;-73
2023/10/13 15:50:40;;;;;;;48.88;31.80;;;22.60;95.90;;;;;;5011618;28;20037;-74
2023/10/13 15:53:08;;;;;;;51.85;33.95;;;22.60;95.90;;;;;;5010504;28;20056;-73
2023/10/13 15:55:37;;;;;;;56.15;35.25;;;22.60;95.90;;;;;;5013044;28;20022;-73
2023/10/13 15:58:07;;;;;;;56.90;34.63;;;22.60;96.00;;;;;;5013367;28;20033;-73
2023/10/13 16:00:35;;;;;;;56.83;33.17;;;22.60;96.10;;;;;;5012797;28;20492;-73
2023/10/13 16:03:01;;;;;;;51.78;33.20;;;22.60;96.10;;;;;;5011385;28;20394;-73
2023/10/13 16:05:37;;;;;;;55.28;33.45;;;22.60;96.10;;;;;;5011535;28;20033;-73
2023/10/13 16:08:06;;;;;;;47.22;32.47;;;22.50;96.20;;;;;;5011425;28;20359;-73
2023/10/13 16:10:33;;;;;;;61.40;35.90;;;22.50;96.20;;;;;;5011318;28;20105;-73
2023/10/13 16:12:59;;;;;;;48.58;34.22;;;22.50;96.20;;;;;;5011098;28;20034;-73
2023/10/13 16:15:28;;;;;;;56.40;33.97;;;22.50;96.20;;;;;;5012684;28;20034;-73
2023/10/13 16:17:54;;;;;;;57.30;34.13;;;22.50;96.30;;;;;;5017166;28;20427;-73
2023/10/13 16:20:20;;;;;;;49.42;34.05;;;22.50;96.40;;;;;;5016779;28;20394;-74
2023/10/13 16:22:47;;;;;;;56.88;36.22;;;22.50;96.40;;;;;;5015161;28;20026;-73
2023/10/13 16:25:15;;;;;;;64.32;34.55;;;22.50;96.40;;;;;;5016552;28;20032;-73
2023/10/13 16:27:43;;;;;;;51.28;31.77;;;22.40;96.40;;;;;;5016829;28;20029;-73
2023/10/13 16:30:32;;;;;;;52.63;31.73;;;22.50;96.50;;;;;;5016445;28;20022;-73
2023/10/13 16:33:02;;;;;;;57.17;34.08;;;22.50;96.50;;;;;;5016305;28;20432;-73
2023/10/13 16:35:33;;;;;;;52.45;34.10;;;22.40;96.60;;;;;;5015953;28;20046;-73
2023/10/13 16:38:06;;;;;;;54.78;32.83;;;22.40;96.50;;;;;;5016409;28;20084;-74
2023/10/13 16:40:32;;;;;;;56.05;32.80;;;22.40;96.50;;;;;;5016188;28;20030;-73
2023/10/13 16:43:00;;;;;;;63.10;34.95;;;22.40;96.50;;;;;;5016072;28;20022;-73
2023/10/13 16:45:31;;;;;;;57.42;33.80;;;22.40;96.60;;;;;;5014741;28;20030;-73
2023/10/13 16:47:56;;;;;;;56.80;35.92;;;22.40;96.70;;;;;;5015840;28;20414;-73
2023/10/13 16:50:22;;;;;;;50.90;34.13;;;22.40;96.70;;;;;;5015640;28;20029;-74
2023/10/13 16:52:48;;;;;;;54.85;34.72;;;22.40;96.70;;;;;;5016080;28;20096;-73